Time;durP1;ratioP1;P1;durP2;ratioP2;P2;SDS_P1;SDS_P2;PMS_P1;PMS_P2;Temp;Humidity;BMP_temperature;BMP_pressure;BME280_temperature;BME280_humidity;BME280_pressure;Samples;Min_cycle;Max_cycle;Signal;HPM_P1;HPM_P2
2021/01/01 00:02:19;;;;;;;1.58;1.00;;;;;;;25.59;29.59;95293.97;5042561;28;20041;-46
2021/01/01 00:04:46;;;;;;;1.55;1.00;;;;;;;25.59;29.31;95299.22;5042061;28;20040;-44
2021/01/01 00:07:12;;;;;;;1.33;0.75;;;;;;;25.59;29.49;95275.59;5045391;28;20573;-43
2021/01/01 00:09:37;;;;;;;1.10;1.00;;;;;;;25.57;29.50;95280.97;5045070;28;20079;-43
2021/01/01 00:12:03;;;;;;;0.82;0.80;;;;;;;25.56;29.58;95290.59;5036536;28;20041;-43
2021/01/01 00:14:28;;;;;;;0.77;0.70;;;;;;;25.57;29.42;95287.06;5031051;28;20522;-46
2021/01/01 00:16:54;;;;;;;1.25;0.90;;;;;;;25.59;29.40;95293.97;5041086;28;20120;-47
2021/01/01 00:19:20;;;;;;;1.42;0.80;;;;;;;25.60;29.51;95295.63;5042420;28;20542;-43
2021/01/01 00:21:45;;;;;;;1.30;0.73;;;;;;;25.57;29.58;95292.31;5033175;28;20045;-44
2021/01/01 00:24:11;;;;;;;0.75;0.63;;;;;;;25.60;29.11;95290.38;5044061;28;20095;-41
2021/01/01 00:26:37;;;;;;;1.08;0.80;;;;;;;25.59;29.40;95284.28;5047290;28;20044;-47
2021/01/01 00:29:02;;;;;;;1.02;0.90;;;;;;;25.61;29.31;95292.88;5039974;28;20036;-47
2021/01/01 00:31:28;;;;;;;1.13;0.90;;;;;;;25.61;29.41;95295.50;5042244;28;20040;-43
2021/01/01 00:33:54;;;;;;;0.90;0.80;;;;;;;25.60;29.27;95295.63;5044789;28;20047;-48
2021/01/01 00:36:20;;;;;;;0.98;0.70;;;;;;;25.60;29.35;95296.47;5043386;28;20977;-43
2021/01/01 00:38:50;;;;;;;1.83;1.10;;;;;;;25.60;29.50;95306.13;5047633;28;20045;-44
2021/01/01 00:41:31;;;;;;;1.35;1.00;;;;;;;25.60;29.32;95296.47;5046463;28;20565;-43
2021/01/01 00:43:57;;;;;;;1.17;1.00;;;;;;;25.60;29.50;95296.47;5041311;28;20059;-44
2021/01/01 00:46:24;;;;;;;1.35;1.08;;;;;;;25.59;29.47;95301.84;5044172;28;20546;-48
2021/01/01 00:48:49;;;;;;;1.25;1.15;;;;;;;25.61;29.42;95310.41;5049652;28;20096;-46
2021/01/01 00:51:15;;;;;;;1.60;0.98;;;;;;;25.61;29.58;95302.53;5046726;28;20071;-45
2021/01/01 00:53:40;;;;;;;1.73;0.80;;;;;;;25.59;29.55;95309.69;5054779;28;20048;-45
2021/01/01 00:56:06;;;;;;;0.85;0.75;;;;;;;25.57;29.40;95313.28;5033630;28;22989;-47
2021/01/01 00:58:32;;;;;;;1.65;1.08;;;;;;;25.57;29.55;95313.28;5041432;28;20079;-43
2021/01/01 01:00:57;;;;;;;0.75;0.70;;;;;;;25.55;29.58;95312.53;5042507;28;20518;-47
2021/01/01 01:03:23;;;;;;;0.90;0.60;;;;;;;25.57;29.30;95315.91;5045875;28;20037;-43
2021/01/01 01:05:49;;;;;;;0.73;0.73;;;;;;;25.56;29.49;95321.25;5042928;28;20048;-44
2021/01/01 01:08:14;;;;;;;1.10;0.90;;;;;;;25.55;29.44;95320.38;5042999;28;20463;-44
2021/01/01 01:10:39;;;;;;;1.00;0.90;;;;;;;25.53;29.33;95327.53;5047402;28;20040;-44
2021/01/01 01:13:05;;;;;;;2.33;0.77;;;;;;;25.54;29.51;95334.47;5044726;28;20036;-44
2021/01/01 01:15:30;;;;;;;1.08;0.98;;;;;;;25.54;29.59;95339.72;5046505;28;20063;-43
2021/01/01 01:17:56;;;;;;;0.93;0.82;;;;;;;25.56;29.37;95342.25;5043735;28;20040;-42
2021/01/01 01:20:21;;;;;;;1.42;0.90;;;;;;;25.53;29.43;95338.03;5045582;28;20037;-41
2021/01/01 01:22:47;;;;;;;1.05;0.95;;;;;;;25.57;29.56;95346.53;5042291;28;20283;-42
2021/01/01 01:25:13;;;;;;;0.73;0.73;;;;;;;25.57;29.54;95343.91;5046487;28;20053;-42
2021/01/01 01:27:38;;;;;;;1.05;0.85;;;;;;;25.57;29.26;95347.38;5058198;28;20054;-42
2021/01/01 01:30:05;;;;;;;1.13;0.80;;;;;;;25.57;29.41;95350.00;5045596;28;20531;-44
2021/01/01 01:32:30;;;;;;;0.70;0.70;;;;;;;25.57;29.51;95347.38;5036025;28;20047;-44
2021/01/01 01:34:56;;;;;;;1.17;0.90;;;;;;;25.56;29.34;95348.31;5037788;28;20048;-43
2021/01/01 01:37:22;;;;;;;1.10;0.80;;;;;;;25.56;29.26;95345.69;5041685;28;20037;-46
2021/01/01 01:39:48;;;;;;;1.13;0.90;;;;;;;25.58;29.46;95350.81;5036365;28;20051;-46
2021/01/01 01:42:13;;;;;;;0.60;0.60;;;;;;;25.57;29.42;95350.00;5048865;28;20037;-44
2021/01/01 01:44:39;;;;;;;0.80;0.80;;;;;;;25.59;29.42;95354.28;5043108;28;20037;-49
2021/01/01 01:47:05;;;;;;;1.00;0.70;;;;;;;25.56;29.36;95356.19;5042238;28;20511;-42
2021/01/01 01:49:30;;;;;;;1.17;0.80;;;;;;;25.55;29.46;95351.88;5041371;28;20048;-43
2021/01/01 01:51:56;;;;;;;0.65;0.60;;;;;;;25.55;29.35;95361.53;5054860;28;20506;-44
2021/01/01 01:54:21;;;;;;;1.35;1.05;;;;;;;25.54;29.33;95355.44;5044760;28;20316;-47
2021/01/01 01:56:47;;;;;;;2.38;0.90;;;;;;;25.53;29.44;95351.16;5058119;28;20040;-40
2021/01/01 01:59:18;;;;;;;1.40;0.85;;;;;;;25.55;29.28;95356.28;5037521;28;20523;-43
2021/01/01 02:01:43;;;;;;;0.70;0.70;;;;;;;25.54;29.54;95360.69;5055395;28;20413;-44
2021/01/01 02:04:09;;;;;;;1.58;0.95;;;;;;;25.55;29.34;95362.34;5042186;28;20044;-45
2021/01/01 02:06:34;;;;;;;0.70;0.70;;;;;;;25.53;29.44;95358.19;5044854;28;20040;-45
2021/01/01 02:09:00;;;;;;;1.45;1.05;;;;;;;25.53;29.27;95364.28;5043104;28;20045;-45
2021/01/01 02:11:25;;;;;;;0.70;0.70;;;;;;;25.52;29.49;95362.56;5046402;28;20040;-45
2021/01/01 02:13:53;;;;;;;0.77;0.77;;;;;;;25.53;29.48;95371.28;5053273;28;20033;-41
2021/01/01 02:16:18;;;;;;;1.08;0.90;;;;;;;25.52;29.44;95380.94;5041512;28;20059;-47
2021/01/01 02:18:45;;;;;;;0.88;0.80;;;;;;;25.53;29.44;95380.00;5058035;28;20044;-44
2021/01/01 02:21:17;;;;;;;0.93;0.80;;;;;;;25.51;29.29;95379.28;5040619;28;20064;-43
2021/01/01 02:23:43;;;;;;;;;;;;;;;25.52;29.40;95377.50;5044998;28;20659;-45
2021/01/01 02:26:09;;;;;;;1.35;0.90;;;;;;;25.51;29.27;95384.50;5043310;28;19994;-43
2021/01/01 02:28:35;;;;;;;0.95;0.70;;;;;;;25.54;29.42;95384.28;5040301;28;20033;-46
2021/01/01 02:31:01;;;;;;;1.02;0.70;;;;;;;25.53;29.47;95379.16;5044266;28;20036;-43
2021/01/01 02:33:27;;;;;;;0.65;0.65;;;;;;;25.52;29.55;95388.81;5042878;28;20113;-48
2021/01/01 02:35:53;;;;;;;2.45;0.70;;;;;;;25.52;29.32;95394.06;5045354;28;20048;-43
2021/01/01 02:38:19;;;;;;;2.92;1.00;;;;;;;25.50;29.27;95395.97;5041480;28;20053;-44
2021/01/01 02:40:44;;;;;;;0.70;0.70;;;;;;;25.53;29.46;95398.38;5049157;28;20582;-42
2021/01/01 02:43:10;;;;;;;0.90;0.70;;;;;;;25.52;29.49;95401.91;5041552;28;20205;-41
2021/01/01 02:45:36;;;;;;;1.33;0.80;;;;;;;25.52;29.40;95394.06;5041187;28;20041;-44
2021/01/01 02:48:18;;;;;;;1.13;0.80;;;;;;;25.53;29.34;95401.00;5042771;28;20577;-39
2021/01/01 02:50:44;;;;;;;;;;;;;;;25.54;29.46;95399.19;5045469;28;20411;-42
2021/01/01 02:53:09;;;;;;;1.05;0.75;;;;;;;25.50;29.25;95388.09;5044394;28;19912;-42
2021/01/01 02:55:35;;;;;;;1.00;0.88;;;;;;;25.50;29.34;95393.34;5035432;28;20036;-45
2021/01/01 02:58:01;;;;;;;0.70;0.60;;;;;;;25.47;29.51;95385.69;5037792;28;20183;-42
2021/01/01 03:00:27;;;;;;;0.70;0.70;;;;;;;25.49;29.51;95386.44;5041905;28;20049;-42
2021/01/01 03:02:52;;;;;;;1.65;0.90;;;;;;;25.48;29.59;95391.78;5043228;28;20071;-42
2021/01/01 03:05:18;;;;;;;0.85;0.77;;;;;;;25.48;29.32;95392.63;5033293;28;20076;-43
2021/01/01 03:07:44;;;;;;;0.50;0.50;;;;;;;25.46;29.56;95394.50;5045015;28;20028;-45
2021/01/01 03:10:09;;;;;;;0.85;0.82;;;;;;;25.43;29.43;95381.63;5042134;28;20036;-46
2021/01/01 03:12:35;;;;;;;2.03;0.60;;;;;;;25.45;29.47;95379.75;5045201;28;20037;-42
2021/01/01 03:15:00;;;;;;;0.82;0.70;;;;;;;25.44;29.57;95389.38;5039152;28;20037;-45
2021/01/01 03:17:26;;;;;;;1.77;0.70;;;;;;;25.44;29.57;95396.44;5043354;28;20041;-45
2021/01/01 03:19:51;;;;;;;0.95;0.70;;;;;;;25.45;29.64;95392.84;5043894;28;20032;-43
2021/01/01 03:22:17;;;;;;;1.08;0.93;;;;;;;25.44;29.56;95392.00;5040421;28;20045;-43
2021/01/01 03:24:43;;;;;;;0.75;0.70;;;;;;;25.45;29.34;95403.34;5038722;28;20071;-44
2021/01/01 03:27:09;;;;;;;1.75;0.93;;;;;;;25.43;29.42;95399.97;5041318;28;20162;-42
2021/01/01 03:29:34;;;;;;;0.65;0.63;;;;;;;25.45;29.29;95403.34;5045369;28;20041;-40
2021/01/01 03:32:01;;;;;;;0.60;0.60;;;;;;;25.45;29.44;95400.72;5040853;28;20033;-46
2021/01/01 03:34:26;;;;;;;0.88;0.77;;;;;;;25.45;29.35;95398.09;5041427;28;20492;-40
2021/01/01 03:36:51;;;;;;;0.60;0.50;;;;;;;25.44;29.53;95394.63;5044137;28;20045;-45
2021/01/01 03:39:18;;;;;;;1.30;0.90;;;;;;;25.44;29.52;95391.19;5032300;28;20513;-45
2021/01/01 03:41:43;;;;;;;0.70;0.70;;;;;;;25.45;29.47;95403.34;5030967;28;20753;-48
2021/01/01 03:44:09;;;;;;;0.73;0.73;;;;;;;25.44;29.34;95392.00;5046629;28;20079;-44
2021/01/01 03:46:35;;;;;;;0.85;0.68;;;;;;;25.43;29.58;95395.59;5044592;28;20668;-43
2021/01/01 03:49:00;;;;;;;0.68;0.60;;;;;;;25.43;29.60;95397.34;5035416;28;20037;-45
2021/01/01 03:51:26;;;;;;;0.75;0.70;;;;;;;25.43;29.55;95392.13;5041820;28;20408;-43
2021/01/01 03:53:51;;;;;;;1.88;0.70;;;;;;;25.44;29.18;95392.00;5043882;28;20029;-42
2021/01/01 03:56:17;;;;;;;0.70;0.63;;;;;;;25.44;29.38;95397.25;5042559;28;20045;-44
2021/01/01 03:58:42;;;;;;;0.60;0.60;;;;;;;25.43;29.52;95394.72;5040122;28;20075;-45
2021/01/01 04:01:08;;;;;;;0.52;0.52;;;;;;;25.43;29.35;95390.34;5047469;28;20041;-42
2021/01/01 04:03:33;;;;;;;0.73;0.70;;;;;;;25.44;29.42;95396.44;5046973;28;20037;-43
2021/01/01 04:05:59;;;;;;;0.70;0.63;;;;;;;25.41;29.46;95389.63;5044148;28;21094;-44
2021/01/01 04:08:24;;;;;;;0.47;0.47;;;;;;;25.44;29.59;95396.44;5044980;28;20548;-44
2021/01/01 04:10:50;;;;;;;0.60;0.60;;;;;;;25.43;29.56;95394.72;5047853;28;20049;-40
2021/01/01 04:13:16;;;;;;;0.73;0.60;;;;;;;25.31;29.61;95378.97;5046445;28;20587;-44
2021/01/01 04:15:41;;;;;;;0.60;0.60;;;;;;;25.42;29.57;95398.31;5040555;28;20056;-42
2021/01/01 04:18:07;;;;;;;0.70;0.70;;;;;;;25.42;29.46;95403.56;5045731;28;20553;-44
2021/01/01 04:20:33;;;;;;;0.70;0.60;;;;;;;25.42;29.55;95393.06;5048685;28;20033;-41
2021/01/01 04:22:59;;;;;;;0.47;0.47;;;;;;;25.41;29.50;95399.28;5037385;28;20157;-47
2021/01/01 04:25:24;;;;;;;1.23;0.85;;;;;;;25.37;29.48;95395.19;5046438;28;20049;-43
2021/01/01 04:27:50;;;;;;;0.88;0.70;;;;;;;25.39;29.70;95402.00;5045197;28;20049;-44
2021/01/01 04:30:16;;;;;;;0.63;0.63;;;;;;;25.38;29.58;95402.97;5044520;28;20040;-44
2021/01/01 04:32:41;;;;;;;0.63;0.60;;;;;;;25.39;29.69;95398.53;5043979;28;20032;-49
2021/01/01 04:35:11;;;;;;;0.82;0.70;;;;;;;25.40;29.46;95393.19;5046060;28;20547;-41
2021/01/01 04:37:37;;;;;;;0.73;0.73;;;;;;;25.41;29.63;95401.91;5043326;28;20037;-44
2021/01/01 04:40:03;;;;;;;0.77;0.60;;;;;;;25.41;29.64;95396.66;5048526;28;20522;-38
2021/01/01 04:42:28;;;;;;;0.80;0.70;;;;;;;25.41;29.67;95404.50;5045446;28;20049;-46
2021/01/01 04:44:54;;;;;;;0.68;0.68;;;;;;;25.41;29.49;95407.13;5028233;28;20041;-43
2021/01/01 04:47:21;;;;;;;1.25;0.70;;;;;;;25.41;29.58;95407.13;5045343;28;20060;-46
2021/01/01 04:49:46;;;;;;;1.00;0.73;;;;;;;25.39;29.59;95404.63;5044284;28;20036;-45
2021/01/01 04:52:12;;;;;;;0.90;0.65;;;;;;;25.41;29.43;95401.91;5043318;28;20380;-47
2021/01/01 04:54:37;;;;;;;0.70;0.70;;;;;;;25.40;29.58;95406.28;5041187;28;20044;-47
2021/01/01 04:57:04;;;;;;;0.70;0.70;;;;;;;25.40;29.50;95403.66;5027806;28;20045;-43
2021/01/01 04:59:29;;;;;;;0.70;0.60;;;;;;;25.41;29.45;95409.75;5048288;28;20076;-43
2021/01/01 05:01:55;;;;;;;0.70;0.45;;;;;;;25.41;29.59;95407.97;5041707;28;20628;-46
2021/01/01 05:04:21;;;;;;;0.68;0.60;;;;;;;25.41;29.68;95412.38;5044100;28;20049;-42
2021/01/01 05:06:47;;;;;;;0.60;0.50;;;;;;;25.39;29.66;95416.88;5044764;28;20823;-43
2021/01/01 05:09:12;;;;;;;0.60;0.60;;;;;;;25.38;29.51;95412.59;5043827;28;20043;-43
2021/01/01 05:11:38;;;;;;;0.70;0.70;;;;;;;25.38;29.62;95418.69;5046322;28;20055;-47
2021/01/01 05:14:04;;;;;;;0.88;0.63;;;;;;;25.36;29.36;95417.13;5043716;28;20029;-46
2021/01/01 05:16:30;;;;;;;0.60;0.60;;;;;;;25.38;29.56;95416.06;5022739;28;20608;-42
2021/01/01 05:18:56;;;;;;;0.60;0.60;;;;;;;25.39;29.43;95416.88;5042374;28;20068;-45
2021/01/01 05:21:22;;;;;;;0.95;0.77;;;;;;;25.38;29.70;95417.84;5043125;28;20108;-44
2021/01/01 05:23:55;;;;;;;0.52;0.52;;;;;;;25.35;29.61;95424.16;5045147;28;20106;-48
2021/01/01 05:26:25;;;;;;;0.68;0.68;;;;;;;25.37;29.81;95434.53;5044948;28;20064;-46
2021/01/01 05:29:07;;;;;;;0.50;0.50;;;;;;;25.37;29.86;95431.91;5045867;28;21236;-46
2021/01/01 05:31:33;;;;;;;;;;;;;;;25.35;29.56;95429.41;5033239;28;20042;-46
2021/01/01 05:34:04;;;;;;;0.70;0.68;;;;;;;25.35;29.75;95439.06;5046033;28;20330;-44
2021/01/01 05:36:34;;;;;;;0.50;0.50;;;;;;;25.35;29.62;95439.06;5046841;28;20115;-47
2021/01/01 05:39:00;;;;;;;0.90;0.82;;;;;;;25.35;29.53;95444.31;5047792;28;20606;-42
2021/01/01 05:41:39;;;;;;;0.47;0.47;;;;;;;25.30;29.60;95445.47;5033929;28;20032;-43
2021/01/01 05:44:06;;;;;;;0.50;0.45;;;;;;;25.34;29.71;95453.09;5038154;28;20408;-46
2021/01/01 05:46:31;;;;;;;0.52;0.50;;;;;;;25.30;29.64;95453.34;5039187;28;20048;-43
2021/01/01 05:49:00;;;;;;;0.68;0.60;;;;;;;25.34;29.54;95453.94;5034895;28;20037;-45
2021/01/01 05:51:26;;;;;;;0.40;0.40;;;;;;;25.34;29.59;95455.72;5045722;28;20052;-45
2021/01/01 05:54:09;;;;;;;0.68;0.63;;;;;;;25.36;29.56;95459.09;5045696;28;20135;-42
2021/01/01 05:56:34;;;;;;;0.60;0.60;;;;;;;25.36;29.72;95464.34;5054511;28;20047;-44
2021/01/01 05:59:00;;;;;;;0.88;0.70;;;;;;;25.36;29.67;95461.72;5045051;28;20033;-42
2021/01/01 06:01:26;;;;;;;0.43;0.43;;;;;;;25.36;29.63;95461.72;5054113;28;20493;-44
2021/01/01 06:03:51;;;;;;;0.75;0.68;;;;;;;25.36;29.55;95464.34;5041685;28;20053;-45
2021/01/01 06:06:17;;;;;;;0.40;0.40;;;;;;;25.35;29.74;95466.09;5043297;28;20049;-46
2021/01/01 06:08:42;;;;;;;0.57;0.57;;;;;;;25.37;29.82;95466.00;5040545;28;20047;-44
2021/01/01 06:11:08;;;;;;;0.70;0.70;;;;;;;25.36;29.75;95472.19;5046758;28;20041;-42
2021/01/01 06:13:35;;;;;;;0.60;0.60;;;;;;;25.36;29.56;95466.97;5041248;28;20052;-44
2021/01/01 06:16:02;;;;;;;1.00;0.60;;;;;;;25.33;29.74;95472.41;5040257;28;20045;-41
2021/01/01 06:18:32;;;;;;;0.65;0.50;;;;;;;25.34;29.67;95481.94;5058814;28;20064;-44
2021/01/01 06:20:59;;;;;;;0.60;0.57;;;;;;;25.34;29.57;95484.56;5036093;28;20063;-45
2021/01/01 06:23:44;;;;;;;0.70;0.70;;;;;;;25.34;29.68;95495.91;5035956;28;20526;-44
2021/01/01 06:26:10;;;;;;;0.70;0.70;;;;;;;25.34;29.67;95500.31;5046408;28;20774;-43
2021/01/01 06:28:41;;;;;;;0.50;0.40;;;;;;;25.34;29.67;95489.81;5039522;28;20132;-44
2021/01/01 06:31:07;;;;;;;0.60;0.60;;;;;;;25.34;29.72;95500.31;5043608;28;20040;-43
2021/01/01 06:33:33;;;;;;;0.60;0.60;;;;;;;25.35;29.37;95509.88;5028362;28;20041;-43
2021/01/01 06:35:58;;;;;;;0.50;0.50;;;;;;;25.35;29.65;95505.44;5045586;28;20077;-45
2021/01/01 06:38:35;;;;;;;0.60;0.60;;;;;;;25.36;29.62;95511.53;5040714;28;20090;-44
2021/01/01 06:41:01;;;;;;;0.80;0.60;;;;;;;25.36;29.59;95511.53;5037273;28;20033;-43
2021/01/01 06:43:55;;;;;;;0.40;0.40;;;;;;;25.36;29.69;95514.16;5046813;28;20131;-45
2021/01/01 06:46:33;;;;;;;0.50;0.50;;;;;;;25.35;29.58;95520.34;5042466;28;20041;-46
2021/01/01 06:48:59;;;;;;;0.40;0.40;;;;;;;25.34;29.56;95519.50;5040951;28;20052;-44
2021/01/01 06:51:24;;;;;;;0.55;0.50;;;;;;;25.33;29.76;95519.59;5038194;28;20068;-44
2021/01/01 06:53:50;;;;;;;0.60;0.60;;;;;;;25.34;29.79;95521.28;5041003;28;20037;-43
2021/01/01 06:56:18;;;;;;;0.60;0.50;;;;;;;25.29;29.53;95519.81;5032839;28;20129;-44
2021/01/01 06:58:44;;;;;;;0.85;0.70;;;;;;;25.31;29.61;95523.19;5044231;28;20072;-47
2021/01/01 07:01:16;;;;;;;0.50;0.50;;;;;;;25.30;29.70;95518.06;5019983;28;21327;-45
2021/01/01 07:03:41;;;;;;;0.65;0.60;;;;;;;25.29;29.77;95525.06;5045757;28;20045;-43
2021/01/01 07:06:06;;;;;;;0.45;0.45;;;;;;;25.31;29.75;95528.44;5032962;28;20037;-46
2021/01/01 07:08:41;;;;;;;0.93;0.57;;;;;;;25.31;29.78;95528.44;5046297;28;20021;-48
2021/01/01 07:11:29;;;;;;;0.47;0.47;;;;;;;25.33;29.74;95540.59;5042557;28;20041;-45
2021/01/01 07:13:55;;;;;;;0.70;0.50;;;;;;;25.31;29.75;95538.91;5040033;28;20029;-46
2021/01/01 07:16:22;;;;;;;0.50;0.50;;;;;;;25.34;29.67;95548.34;5042743;28;20040;-42
2021/01/01 07:18:48;;;;;;;0.60;0.60;;;;;;;25.33;29.54;95548.47;5039835;28;20143;-46
2021/01/01 07:21:15;;;;;;;0.50;0.50;;;;;;;25.34;29.49;95550.13;5040952;28;20790;-44
2021/01/01 07:23:40;;;;;;;0.40;0.40;;;;;;;25.34;29.61;95542.25;5041192;28;20120;-48
2021/01/01 07:26:07;;;;;;;0.40;0.40;;;;;;;25.33;29.82;95551.06;5046282;28;20508;-47
2021/01/01 07:28:33;;;;;;;0.55;0.45;;;;;;;25.31;29.60;95548.56;5038466;28;20555;-46
2021/01/01 07:30:58;;;;;;;0.40;0.40;;;;;;;25.34;29.60;95548.34;5034847;28;20123;-49
2021/01/01 07:33:31;;;;;;;0.50;0.50;;;;;;;25.33;29.49;95551.94;5041827;28;20044;-50
2021/01/01 07:35:58;;;;;;;0.40;0.40;;;;;;;25.31;29.57;95565.16;5045380;28;20630;-47
2021/01/01 07:38:24;;;;;;;0.40;0.40;;;;;;;25.28;29.86;95562.72;5041226;28;20033;-45
2021/01/01 07:40:50;;;;;;;0.60;0.50;;;;;;;25.31;29.64;95566.91;5048929;28;20045;-45
2021/01/01 07:43:15;;;;;;;0.50;0.50;;;;;;;25.34;29.85;95573.72;5046356;28;20057;-44
2021/01/01 07:45:41;;;;;;;0.52;0.52;;;;;;;25.31;29.63;95574.78;5043213;28;20052;-44
2021/01/01 07:48:07;;;;;;;0.65;0.45;;;;;;;25.34;29.56;95579.81;5056767;28;20036;-44
2021/01/01 07:50:33;;;;;;;0.50;0.50;;;;;;;25.33;29.59;95582.53;5044534;28;20060;-49
2021/01/01 07:53:03;;;;;;;0.60;0.60;;;;;;;25.34;29.81;95573.72;5043287;28;20994;-47
2021/01/01 07:55:28;;;;;;;0.50;0.50;;;;;;;25.34;29.51;95568.47;5047327;28;20064;-45
2021/01/01 07:57:54;;;;;;;0.30;0.30;;;;;;;25.33;29.53;95572.06;5046451;28;20496;-45
2021/01/01 08:00:20;;;;;;;0.40;0.40;;;;;;;25.31;29.62;95573.00;5026375;28;20040;-42
2021/01/01 08:02:45;;;;;;;0.40;0.40;;;;;;;25.31;29.79;95575.63;5044687;28;20543;-45
2021/01/01 08:05:14;;;;;;;0.40;0.40;;;;;;;25.34;29.64;95579.81;5052709;28;20130;-47
2021/01/01 08:07:40;;;;;;;0.40;0.40;;;;;;;25.34;29.77;95578.97;5045698;28;20048;-47
2021/01/01 08:10:06;;;;;;;0.60;0.60;;;;;;;25.34;29.53;95586.84;5061636;28;20036;-47
2021/01/01 08:12:32;;;;;;;0.40;0.40;;;;;;;25.35;29.61;95591.16;5050128;28;20416;-46
2021/01/01 08:14:57;;;;;;;0.60;0.47;;;;;;;25.35;29.70;95593.78;5053262;28;20047;-41
2021/01/01 08:17:26;;;;;;;0.40;0.40;;;;;;;25.34;29.50;95599.94;5042741;28;20037;-48
2021/01/01 08:19:52;;;;;;;0.50;0.50;;;;;;;25.34;29.81;95605.19;5043274;28;20037;-46
2021/01/01 08:22:22;;;;;;;0.38;0.38;;;;;;;25.29;29.89;95608.97;5046883;28;20063;-47
2021/01/01 08:24:50;;;;;;;0.40;0.40;;;;;;;25.31;29.57;95612.34;5045888;28;20108;-47
2021/01/01 08:27:16;;;;;;;0.40;0.40;;;;;;;25.30;29.89;95613.28;5055825;28;20123;-45
2021/01/01 08:29:42;;;;;;;0.60;0.60;;;;;;;25.30;29.61;95621.16;5039394;28;20040;-46
2021/01/01 08:32:07;;;;;;;0.60;0.52;;;;;;;25.29;29.63;95616.84;5045283;28;20029;-47
2021/01/01 08:34:33;;;;;;;0.32;0.30;;;;;;;25.30;29.67;95609.81;5044920;28;20045;-41
2021/01/01 08:36:59;;;;;;;0.40;0.40;;;;;;;25.30;29.72;95615.06;5046699;28;20749;-46
2021/01/01 08:39:24;;;;;;;0.45;0.40;;;;;;;25.29;29.83;95616.84;5045657;28;20051;-44
2021/01/01 08:41:50;;;;;;;0.50;0.50;;;;;;;25.25;29.67;95623.25;5044304;28;20052;-47
2021/01/01 08:44:16;;;;;;;0.38;0.38;;;;;;;25.24;29.94;95623.38;5042321;28;20089;-46
2021/01/01 08:46:43;;;;;;;0.95;0.60;;;;;;;25.22;29.80;95628.72;5040183;28;20041;-45
2021/01/01 08:49:21;;;;;;;0.30;0.30;;;;;;;25.20;30.01;95633.22;5039178;28;20032;-43
2021/01/01 08:51:47;;;;;;;0.30;0.30;;;;;;;25.22;29.72;95633.97;5039702;28;20051;-45
2021/01/01 08:54:22;;;;;;;0.80;0.70;;;;;;;25.18;30.02;95632.50;5046847;28;20067;-43
2021/01/01 08:56:49;;;;;;;0.35;0.35;;;;;;;25.21;30.03;95645.41;5045459;28;20132;-45
2021/01/01 08:59:14;;;;;;;0.40;0.40;;;;;;;25.19;29.92;95639.41;5042870;28;20691;-47
2021/01/01 09:01:40;;;;;;;0.40;0.40;;;;;;;25.17;29.87;95638.69;5037794;28;20049;-48
2021/01/01 09:04:06;;;;;;;0.50;0.50;;;;;;;25.19;29.92;95639.41;5035024;28;20504;-45
2021/01/01 09:06:31;;;;;;;0.40;0.40;;;;;;;25.19;29.98;95649.91;5041695;28;20065;-45
2021/01/01 09:09:04;;;;;;;0.38;0.38;;;;;;;25.20;29.80;95643.69;5044775;28;20064;-47
2021/01/01 09:11:30;;;;;;;0.40;0.40;;;;;;;25.19;30.03;95649.91;5047422;28;20712;-44
2021/01/01 09:14:03;;;;;;;0.30;0.30;;;;;;;25.19;29.98;95634.16;5044784;28;20125;-43
2021/01/01 09:16:29;;;;;;;0.40;0.40;;;;;;;25.21;29.97;95642.78;5041141;28;20041;-48
2021/01/01 09:18:55;;;;;;;0.43;0.40;;;;;;;25.23;29.76;95651.38;5036456;28;20219;-49
2021/01/01 09:21:21;;;;;;;0.47;0.47;;;;;;;25.28;29.99;95653.69;5039903;28;20044;-44
2021/01/01 09:23:54;;;;;;;0.40;0.40;;;;;;;25.29;29.66;95650.94;5045502;28;20033;-45
2021/01/01 09:26:27;;;;;;;0.43;0.43;;;;;;;25.30;29.90;95650.00;5041776;28;20041;-43
2021/01/01 09:29:03;;;;;;;0.32;0.30;;;;;;;25.33;29.71;95651.56;5041557;28;20041;-44
2021/01/01 09:31:29;;;;;;;0.50;0.50;;;;;;;25.35;29.72;95652.28;5040480;28;20045;-42
2021/01/01 09:34:07;;;;;;;0.47;0.47;;;;;;;25.34;29.76;95655.88;5041705;28;20147;-44
2021/01/01 09:36:34;;;;;;;0.38;0.38;;;;;;;25.34;29.87;95657.63;5044499;28;20083;-46
2021/01/01 09:38:59;;;;;;;0.50;0.50;;;;;;;25.36;29.89;95661.00;5027810;28;20586;-43
2021/01/01 09:41:26;;;;;;;0.38;0.38;;;;;;;25.33;29.99;95654.19;5041453;28;20064;-47
2021/01/01 09:43:51;;;;;;;0.20;0.20;;;;;;;25.37;30.03;95662.69;5046137;28;20037;-48
2021/01/01 09:46:17;;;;;;;0.25;0.25;;;;;;;25.37;29.80;95660.91;5043722;28;20037;-44
2021/01/01 09:48:43;;;;;;;0.28;0.28;;;;;;;25.37;29.95;95657.44;5044417;28;20041;-42
2021/01/01 09:51:09;;;;;;;0.50;0.50;;;;;;;25.38;29.93;95669.59;5041616;28;20646;-43
2021/01/01 09:53:34;;;;;;;0.40;0.40;;;;;;;25.37;30.02;95660.91;5039769;28;20040;-43
2021/01/01 09:56:00;;;;;;;0.40;0.40;;;;;;;25.31;29.91;95659.53;5045320;28;20565;-46
2021/01/01 09:58:25;;;;;;;0.38;0.38;;;;;;;25.39;29.99;95663.41;5047735;28;20032;-43
2021/01/01 10:00:51;;;;;;;0.30;0.30;;;;;;;25.39;29.95;95666.03;5035768;28;20041;-42
2021/01/01 10:03:16;;;;;;;0.40;0.40;;;;;;;25.39;29.87;95671.25;5044975;28;20435;-46
2021/01/01 10:05:42;;;;;;;0.47;0.47;;;;;;;25.39;30.15;95681.75;5040279;28;20499;-46
2021/01/01 10:08:08;;;;;;;0.40;0.40;;;;;;;25.37;30.00;95674.03;5043844;28;20712;-42
2021/01/01 10:10:34;;;;;;;0.40;0.40;;;;;;;25.39;30.21;95681.75;5044052;28;20037;-46
2021/01/01 10:13:00;;;;;;;0.40;0.40;;;;;;;25.41;30.05;95679.88;5035716;28;20103;-43
2021/01/01 10:15:26;;;;;;;0.40;0.40;;;;;;;25.40;30.01;95683.47;5041376;28;20049;-44
2021/01/01 10:17:52;;;;;;;0.32;0.32;;;;;;;25.40;30.38;95678.22;5037697;28;20040;-47
2021/01/01 10:20:17;;;;;;;0.30;0.30;;;;;;;25.38;30.28;95674.84;5045498;28;20041;-45
2021/01/01 10:22:43;;;;;;;0.30;0.30;;;;;;;25.40;30.11;95675.59;5046600;28;20032;-43
2021/01/01 10:25:09;;;;;;;0.50;0.50;;;;;;;25.39;30.10;95676.50;5046495;28;20447;-47
2021/01/01 10:27:34;;;;;;;0.40;0.40;;;;;;;25.38;30.21;95674.84;5049175;28;20041;-49
2021/01/01 10:30:00;;;;;;;0.90;0.40;;;;;;;25.41;30.15;95669.38;5040627;28;20423;-49
2021/01/01 10:32:26;;;;;;;0.50;0.40;;;;;;;25.39;30.08;95666.03;5039974;28;20095;-45
2021/01/01 10:34:51;;;;;;;0.40;0.40;;;;;;;25.41;30.20;95661.53;5042353;28;20576;-43
2021/01/01 10:37:17;;;;;;;0.60;0.50;;;;;;;25.41;30.04;95656.28;5059984;28;20041;-44
2021/01/01 10:39:43;;;;;;;0.68;0.50;;;;;;;25.42;30.14;95666.66;5037624;28;20124;-45
2021/01/01 10:42:09;;;;;;;0.32;0.32;;;;;;;25.42;30.21;95668.44;5029408;28;20084;-46
2021/01/01 10:44:35;;;;;;;0.40;0.40;;;;;;;25.42;30.29;95665.81;5042635;28;20037;-46
2021/01/01 10:47:01;;;;;;;0.38;0.38;;;;;;;25.45;30.08;95660.38;5044894;28;20645;-46
2021/01/01 10:49:26;;;;;;;0.40;0.40;;;;;;;25.44;30.34;95662.13;5039163;28;20033;-44
2021/01/01 10:51:57;;;;;;;0.20;0.20;;;;;;;25.45;30.13;95676.09;5042128;28;20441;-46
2021/01/01 10:54:22;;;;;;;0.30;0.30;;;;;;;25.43;30.36;95672.72;5042333;28;20118;-43
2021/01/01 10:56:47;;;;;;;0.40;0.40;;;;;;;25.41;30.42;95680.72;5041551;28;20049;-43
2021/01/01 10:59:13;;;;;;;0.30;0.30;;;;;;;25.39;30.51;95672.13;5041159;28;20037;-46
2021/01/01 11:01:39;;;;;;;0.40;0.40;;;;;;;25.41;30.43;95679.88;5037772;28;20040;-43
2021/01/01 11:04:05;;;;;;;0.30;0.30;;;;;;;25.44;30.40;95684.94;5043058;28;20029;-46
2021/01/01 11:06:34;;;;;;;0.40;0.30;;;;;;;25.44;30.30;95684.94;5036649;28;20035;-44
2021/01/01 11:09:00;;;;;;;0.30;0.30;;;;;;;25.45;30.48;95691.84;5038495;28;20056;-45
2021/01/01 11:11:26;;;;;;;0.30;0.30;;;;;;;25.43;30.24;95681.44;5035915;28;20389;-42
2021/01/01 12:25:08;;;;;;;2.90;0.70;;;;;;;25.55;30.26;95626.47;5036515;28;20564;-48
2021/01/01 12:27:35;;;;;;;0.50;0.50;;;;;;;25.56;30.51;95620.31;5032069;28;20625;-50
2021/01/01 12:30:05;;;;;;;1.90;0.47;;;;;;;25.57;30.28;95628.06;5045530;28;20068;-46
2021/01/01 12:32:31;;;;;;;6.07;0.70;;;;;;;25.57;30.43;95642.97;5046292;28;20100;-42
2021/01/01 12:34:56;;;;;;;4.20;1.00;;;;;;;25.59;30.41;95642.84;5061259;28;20028;-44
2021/01/01 12:37:23;;;;;;;2.58;2.25;;;;;;;25.40;21.78;95631.81;5044031;28;20462;-44
2021/01/01 12:39:48;;;;;;;3.03;2.42;;;;;;;25.04;19.35;95630.81;5044255;28;20443;-40
2021/01/01 12:42:14;;;;;;;7.38;2.67;;;;;;;24.59;19.74;95633.81;5026619;28;20048;-48
2021/01/01 12:44:40;;;;;;;4.95;1.90;;;;;;;24.32;20.34;95640.75;5034822;28;20115;-46